createdAt,value
2022-08-19T00:04:17.371Z,1008.8
2022-08-19T00:09:23.735Z,1008.9
2022-08-19T00:14:50.148Z,1008.9
2022-08-19T00:19:36.514Z,1008.9
2022-08-19T00:25:42.987Z,1009.0
2022-08-19T00:29:52.538Z,1008.8
2022-08-19T00:34:55.791Z,1008.9
2022-08-19T00:39:52.195Z,1008.8
2022-08-19T00:45:08.557Z,1008.8
2022-08-19T00:50:04.900Z,1008.8
2022-08-19T00:55:21.294Z,1008.8
2022-08-19T01:00:27.731Z,1008.8
2022-08-19T01:05:34.104Z,1008.8
2022-08-19T01:10:33.626Z,1008.7
2022-08-19T01:15:46.863Z,1008.7
2022-08-19T01:20:53.241Z,1008.7
2022-08-19T01:25:49.615Z,1008.7
2022-08-19T01:31:07.967Z,1008.6
2022-08-19T01:36:02.573Z,1008.6
2022-08-19T01:41:18.968Z,1008.6
2022-08-19T01:46:25.370Z,1008.7
2022-08-19T01:53:07.640Z,1008.7
2022-08-19T01:56:38.139Z,1008.7
2022-08-19T02:01:44.592Z,1008.7
2022-08-19T02:06:50.915Z,1008.7
2022-08-19T02:12:21.321Z,1008.6
2022-08-19T02:17:03.652Z,1008.7
2022-08-19T02:22:10.038Z,1008.7
2022-08-19T02:27:16.443Z,1008.7
2022-08-19T02:32:22.964Z,1008.6
2022-08-19T02:37:29.335Z,1008.6
2022-08-19T02:42:35.761Z,1008.6
2022-08-19T02:47:42.128Z,1008.6
2022-08-19T02:52:48.603Z,1008.6
2022-08-19T02:57:55.075Z,1008.7
2022-08-19T03:02:51.551Z,1008.7
2022-08-19T03:08:35.998Z,1008.6
2022-08-19T03:13:14.325Z,1008.7
2022-08-19T03:18:20.735Z,1008.6
2022-08-19T03:29:02.370Z,1008.7
2022-08-19T03:34:09.852Z,1008.6
2022-08-19T03:39:06.264Z,1008.5
2022-08-19T03:44:50.729Z,1008.6
2022-08-19T03:49:29.096Z,1008.5
2022-08-19T03:57:40.657Z,1008.5
2022-08-19T04:02:58.178Z,1008.5
2022-08-19T04:08:18.477Z,1008.5
2022-08-19T04:13:00.819Z,1008.5
2022-08-19T04:20:55.612Z,1008.5
2022-08-19T04:23:13.649Z,1008.5
2022-08-19T04:28:44.091Z,1008.5
2022-08-19T04:33:16.387Z,1008.5
2022-08-19T04:38:32.790Z,1008.6
2022-08-19T04:44:04.548Z,1008.6
2022-08-19T04:48:49.391Z,1008.6
2022-08-19T04:53:52.040Z,1008.6
2022-08-19T04:58:58.453Z,1008.6
2022-08-19T05:04:04.791Z,1008.7
2022-08-19T05:09:11.173Z,1008.7
2022-08-19T05:14:37.649Z,1008.8
2022-08-19T05:19:25.135Z,1008.8
2022-08-19T05:26:49.457Z,1008.8
2022-08-19T05:31:09.259Z,1008.7
2022-08-19T05:36:47.918Z,1008.8
2022-08-19T05:42:09.334Z,1008.9
2022-08-19T05:47:01.694Z,1008.9
2022-08-19T05:51:58.044Z,1008.9
2022-08-19T05:57:04.412Z,1009.0
2022-08-19T06:02:20.845Z,1008.9
2022-08-19T06:07:27.274Z,1008.8
2022-08-19T06:12:37.618Z,1008.9
2022-08-19T06:17:44.009Z,1008.9
2022-08-19T06:22:50.395Z,1008.9
2022-08-19T06:28:13.941Z,1008.8
2022-08-19T06:33:23.871Z,1008.8
2022-08-19T06:38:30.242Z,1008.7
2022-08-19T06:43:16.594Z,1008.7
2022-08-19T06:48:45.698Z,1008.8
2022-08-19T06:53:15.327Z,1008.8
2022-08-19T06:58:31.706Z,1008.7
2022-08-19T07:03:58.119Z,1008.7
2022-08-19T07:08:44.482Z,1008.7
2022-08-19T07:13:50.849Z,1008.6
2022-08-19T07:18:57.219Z,1008.6
2022-08-19T07:24:05.457Z,1008.7
2022-08-19T07:29:10.140Z,1008.8
2022-08-19T07:34:16.617Z,1008.8
2022-08-19T07:39:23.002Z,1008.9
2022-08-19T07:44:29.421Z,1008.9
2022-08-19T07:49:35.749Z,1009.0
2022-08-19T07:55:06.174Z,1009.0
2022-08-19T07:59:48.514Z,1009.0
2022-08-19T08:06:07.205Z,1009.1
2022-08-19T08:10:03.130Z,1009.0
2022-08-19T08:15:08.358Z,1008.9
2022-08-19T08:20:14.703Z,1008.9
2022-08-19T08:25:21.097Z,1008.8
2022-08-19T08:30:28.440Z,1008.9
2022-08-19T08:35:34.051Z,1008.8
2022-08-19T08:41:00.469Z,1008.8
2022-08-19T08:45:46.809Z,1008.7
2022-08-19T08:50:53.186Z,1008.5
2022-08-19T08:55:59.571Z,1008.5
2022-08-19T09:01:06.087Z,1008.6
2022-08-19T09:06:12.443Z,1008.8
2022-08-19T09:11:43.057Z,1008.6
2022-08-19T09:16:27.901Z,1008.7
2022-08-19T09:21:33.324Z,1008.5
2022-08-19T09:26:48.622Z,1008.4
2022-08-19T09:31:44.708Z,1008.3
2022-08-19T09:36:51.135Z,1008.0
2022-08-19T09:43:13.719Z,1008.3
2022-08-19T09:47:03.903Z,1008.4
2022-08-19T09:52:00.253Z,1008.3
2022-08-19T09:58:13.804Z,1008.2
2022-08-19T10:03:50.245Z,1007.9
2022-08-19T10:09:01.619Z,1007.7
2022-08-19T10:14:04.016Z,1008.1
2022-08-19T10:19:30.452Z,1008.1
2022-08-19T10:24:40.855Z,1007.9
2022-08-19T10:29:32.516Z,1007.7
2022-08-19T10:34:57.093Z,1007.7
2022-08-19T10:39:26.032Z,1007.9
2022-08-19T10:44:42.459Z,1008.0
2022-08-19T10:49:48.882Z,1008.1
2022-08-19T10:55:09.306Z,1008.1
2022-08-19T11:00:25.717Z,1008.0
2022-08-19T11:05:12.694Z,1008.1
2022-08-19T11:10:18.223Z,1008.1
2022-08-19T11:15:21.022Z,1008.1
2022-08-19T11:20:27.403Z,1008.0
2022-08-19T11:25:33.807Z,1007.9
2022-08-19T11:30:40.188Z,1007.5
2022-08-19T11:35:46.696Z,1007.6
2022-08-19T11:40:53.066Z,1008.1
2022-08-19T11:45:59.462Z,1008.1
2022-08-19T11:51:09.859Z,1007.9
2022-08-19T11:56:12.243Z,1007.7
2022-08-19T12:01:20.184Z,1007.6
2022-08-19T12:06:26.631Z,1008.1
2022-08-19T12:11:34.653Z,1007.9
2022-08-19T12:16:44.749Z,1007.7
2022-08-19T12:21:35.737Z,1007.5
2022-08-19T12:26:52.948Z,1007.5
2022-08-19T12:31:58.740Z,1007.9
2022-08-19T12:37:19.143Z,1007.8
2022-08-19T12:42:11.526Z,1007.5
2022-08-19T12:47:17.911Z,1007.5
2022-08-19T12:52:44.324Z,1007.4
2022-08-19T12:57:32.179Z,1007.5
2022-08-19T13:02:38.826Z,1007.4
2022-08-19T13:07:43.645Z,1007.5
2022-08-19T13:13:10.054Z,1007.4
2022-08-19T13:17:56.963Z,1007.4
2022-08-19T13:23:02.905Z,1007.4
2022-08-19T13:28:09.605Z,1007.4
2022-08-19T13:33:36.124Z,1007.3
2022-08-19T13:38:22.460Z,1007.6
2022-08-19T13:43:23.041Z,1007.5
2022-08-19T13:50:55.532Z,1007.7
2022-08-19T13:54:09.652Z,1008.0
2022-08-19T13:58:48.007Z,1007.1
2022-08-19T14:03:54.493Z,1007.7
2022-08-19T14:09:00.888Z,1007.2
2022-08-19T14:14:15.845Z,1007.2
2022-08-19T14:19:13.753Z,1007.1
2022-08-19T14:24:20.163Z,1007.1
2022-08-19T14:29:26.726Z,1007.0
2022-08-19T14:34:23.128Z,1006.9
2022-08-19T14:39:39.691Z,1007.0
2022-08-19T14:44:36.007Z,1007.0
2022-08-19T14:49:43.913Z,1006.9
2022-08-19T14:55:32.865Z,1007.0
2022-08-19T15:00:40.247Z,1007.0
2022-08-19T15:05:46.617Z,1007.0
2022-08-19T15:10:53.003Z,1007.1
2022-08-19T15:15:59.433Z,1007.1
2022-08-19T15:20:55.818Z,1007.1
2022-08-19T15:26:16.059Z,1007.2
2022-08-19T15:31:25.490Z,1007.3
2022-08-19T15:36:44.987Z,1007.3
2022-08-19T15:41:31.325Z,1007.3
2022-08-19T15:47:01.758Z,1007.3
2022-08-19T15:51:44.112Z,1007.5
2022-08-19T15:56:40.462Z,1007.4
2022-08-19T16:02:17.068Z,1007.5
2022-08-19T16:07:07.288Z,1007.5
2022-08-19T16:12:33.715Z,1007.5
2022-08-19T16:17:16.116Z,1007.5
2022-08-19T16:22:22.521Z,1007.5
2022-08-19T16:27:28.890Z,1007.5
2022-08-19T16:32:35.316Z,1007.6
2022-08-19T16:37:41.702Z,1007.5
2022-08-19T16:42:48.101Z,1007.7
2022-08-19T16:47:54.606Z,1007.7
2022-08-19T16:53:00.858Z,1007.7
2022-08-19T16:57:57.341Z,1007.7
2022-08-19T17:05:52.149Z,1007.8
2022-08-19T17:08:48.467Z,1007.8
2022-08-19T17:13:26.620Z,1007.9
2022-08-19T17:19:33.104Z,1007.9
2022-08-19T17:23:59.412Z,1008.0
2022-08-19T17:28:45.815Z,1008.0
2022-08-19T17:33:52.210Z,1008.1
2022-08-19T17:39:18.673Z,1008.0
2022-08-19T17:43:54.985Z,1008.1
2022-08-19T17:49:10.386Z,1008.0
2022-08-19T17:54:21.780Z,1008.0
2022-08-19T17:59:24.163Z,1008.1
2022-08-19T18:04:48.707Z,1008.1
2022-08-19T18:10:01.874Z,1008.2
2022-08-19T18:14:43.530Z,1008.2
2022-08-19T18:19:49.929Z,1008.3
2022-08-19T18:24:56.375Z,1008.4
2022-08-19T18:30:02.727Z,1008.4
2022-08-19T18:35:09.122Z,1008.4
2022-08-19T18:40:15.592Z,1008.5
2022-08-19T18:45:22.016Z,1008.6
2022-08-19T18:50:28.426Z,1008.5
2022-08-19T18:55:34.832Z,1008.6
2022-08-19T19:01:01.287Z,1008.7
2022-08-19T19:06:11.631Z,1008.7
2022-08-19T19:10:43.960Z,1008.7
2022-08-19T19:15:50.329Z,1008.8
2022-08-19T19:21:06.846Z,1008.9
2022-08-19T19:26:03.543Z,1008.9
2022-08-19T19:31:09.953Z,1009.0
2022-08-19T19:36:16.337Z,1009.0
2022-08-19T19:41:32.777Z,1008.9
2022-08-19T19:47:23.283Z,1009.0
2022-08-19T19:51:45.587Z,1008.9
2022-08-19T19:56:42.038Z,1008.8
2022-08-19T20:01:48.645Z,1008.9
2022-08-19T20:07:04.989Z,1008.9
2022-08-19T20:12:10.422Z,1008.9
2022-08-19T20:17:17.810Z,1008.9
2022-08-19T20:22:14.190Z,1008.9
2022-08-19T20:27:20.570Z,1008.9
2022-08-19T20:32:37.057Z,1009.0
2022-08-19T20:37:33.417Z,1009.0
2022-08-19T20:42:50.404Z,1009.1
2022-08-19T20:47:56.798Z,1009.1
2022-08-19T20:53:27.211Z,1009.1
2022-08-19T20:58:09.593Z,1009.1
2022-08-19T21:03:05.943Z,1009.1
2022-08-19T21:08:46.519Z,1009.2
2022-08-19T21:13:28.889Z,1009.2
2022-08-19T21:18:25.259Z,1009.3
2022-08-19T21:23:41.685Z,1009.2
2022-08-19T21:28:48.063Z,1009.3
2022-08-19T21:33:44.418Z,1009.2
2022-08-19T21:39:14.925Z,1009.3
2022-08-19T21:43:57.251Z,1009.4
2022-08-19T21:49:03.637Z,1009.5
2022-08-19T21:54:40.079Z,1009.4
2022-08-19T21:59:16.424Z,1009.6
2022-08-19T22:05:06.921Z,1009.6
2022-08-19T22:10:34.339Z,1009.6
2022-08-19T22:15:20.721Z,1009.6
2022-08-19T22:20:27.116Z,1009.5
2022-08-19T22:25:33.489Z,1009.6
2022-08-19T22:30:39.867Z,1009.5
2022-08-19T22:36:15.863Z,1009.5
2022-08-19T22:40:44.171Z,1009.5
2022-08-19T22:45:50.707Z,1009.5
2022-08-19T22:51:07.219Z,1009.5
2022-08-19T22:56:15.518Z,1009.5
2022-08-19T23:02:09.084Z,1009.6
2022-08-19T23:07:16.447Z,1009.5
2022-08-19T23:12:12.804Z,1009.5
2022-08-19T23:17:28.209Z,1009.5
2022-08-19T23:22:35.579Z,1009.5
2022-08-19T23:28:06.113Z,1009.5
2022-08-19T23:33:13.284Z,1009.5
2022-08-19T23:38:09.626Z,1009.4
2022-08-19T23:43:01.994Z,1009.6
2022-08-19T23:48:21.410Z,1009.5
2022-08-19T23:53:55.881Z,1009.7
2022-08-19T23:59:03.236Z,1009.6
